sensor_id;sensor_type;location;lat;lon;timestamp;pressure;altitude;pressure_sealevel;temperature;humidity
67738;BME280;54534;43.612;1.572;2023-06-14T00:00:30;98611.72;;;23.73;57.04
67738;BME280;54534;43.612;1.572;2023-06-14T00:02:56;98618.75;;;23.74;57.13
67738;BME280;54534;43.612;1.572;2023-06-14T00:05:22;98617.06;;;23.73;57.23
67738;BME280;54534;43.612;1.572;2023-06-14T00:07:48;98614.72;;;23.70;57.22
67738;BME280;54534;43.612;1.572;2023-06-14T00:10:15;98616.59;;;23.70;57.05
67738;BME280;54534;43.612;1.572;2023-06-14T00:12:41;98618.09;;;23.72;57.39
67738;BME280;54534;43.612;1.572;2023-06-14T00:15:07;98617.25;;;23.72;57.37
67738;BME280;54534;43.612;1.572;2023-06-14T00:17:35;98605.69;;;23.71;57.16
67738;BME280;54534;43.612;1.572;2023-06-14T00:20:03;98604.00;;;23.70;57.27
67738;BME280;54534;43.612;1.572;2023-06-14T00:22:31;98601.50;;;23.69;57.06
67738;BME280;54534;43.612;1.572;2023-06-14T00:24:56;98598.63;;;23.70;57.19
67738;BME280;54534;43.612;1.572;2023-06-14T00:27:22;98587.09;;;23.70;57.11
67738;BME280;54534;43.612;1.572;2023-06-14T00:29:47;98591.59;;;23.69;57.20
67738;BME280;54534;43.612;1.572;2023-06-14T00:32:13;98589.91;;;23.68;57.27
67738;BME280;54534;43.612;1.572;2023-06-14T00:34:38;98585.38;;;23.69;57.19
67738;BME280;54534;43.612;1.572;2023-06-14T00:37:04;98593.44;;;23.69;57.09
67738;BME280;54534;43.612;1.572;2023-06-14T00:39:29;98581.03;;;23.67;57.13
67738;BME280;54534;43.612;1.572;2023-06-14T00:41:54;98583.72;;;23.67;57.24
67738;BME280;54534;43.612;1.572;2023-06-14T00:44:20;98594.44;;;23.67;57.11
67738;BME280;54534;43.612;1.572;2023-06-14T00:46:47;98587.41;;;23.66;57.05
67738;BME280;54534;43.612;1.572;2023-06-14T00:49:14;98580.38;;;23.65;56.98
67738;BME280;54534;43.612;1.572;2023-06-14T00:51:41;98577.03;;;23.63;57.08
67738;BME280;54534;43.612;1.572;2023-06-14T00:54:07;98581.22;;;23.66;57.08
67738;BME280;54534;43.612;1.572;2023-06-14T00:56:32;98575.84;;;23.66;57.07
67738;BME280;54534;43.612;1.572;2023-06-14T00:58:58;98579.53;;;23.65;57.17
67738;BME280;54534;43.612;1.572;2023-06-14T01:01:23;98585.72;;;23.65;57.04
67738;BME280;54534;43.612;1.572;2023-06-14T01:03:49;98572.66;;;23.62;56.82
67738;BME280;54534;43.612;1.572;2023-06-14T01:09:00;98579.53;;;23.65;56.95
67738;BME280;54534;43.612;1.572;2023-06-14T01:11:32;98577.03;;;23.63;56.74
67738;BME280;54534;43.612;1.572;2023-06-14T01:14:02;98569.31;;;23.60;56.82
67738;BME280;54534;43.612;1.572;2023-06-14T01:16:29;98581.56;;;23.63;56.93
67738;BME280;54534;43.612;1.572;2023-06-14T01:18:55;98575.34;;;23.62;56.87
67738;BME280;54534;43.612;1.572;2023-06-14T01:21:25;98576.19;;;23.63;56.86
67738;BME280;54534;43.612;1.572;2023-06-14T01:23:51;98574.53;;;23.62;56.75
67738;BME280;54534;43.612;1.572;2023-06-14T01:26:21;98572.00;;;23.60;56.79
67738;BME280;54534;43.612;1.572;2023-06-14T01:28:47;98570.34;;;23.59;56.65
67738;BME280;54534;43.612;1.572;2023-06-14T01:31:18;98587.09;;;23.61;56.76
67738;BME280;54534;43.612;1.572;2023-06-14T01:33:45;98581.88;;;23.60;56.78
67738;BME280;54534;43.612;1.572;2023-06-14T01:36:12;98582.06;;;23.58;56.75
67738;BME280;54534;43.612;1.572;2023-06-14T01:38:38;98579.19;;;23.60;56.86
67738;BME280;54534;43.612;1.572;2023-06-14T01:41:04;98584.75;;;23.58;56.59
67738;BME280;54534;43.612;1.572;2023-06-14T01:43:31;98583.91;;;23.58;56.73
67738;BME280;54534;43.612;1.572;2023-06-14T01:45:57;98590.13;;;23.58;56.67
67738;BME280;54534;43.612;1.572;2023-06-14T01:48:23;98584.09;;;23.56;56.67
67738;BME280;54534;43.612;1.572;2023-06-14T01:50:49;98582.72;;;23.60;56.76
67738;BME280;54534;43.612;1.572;2023-06-14T01:53:15;98579.38;;;23.58;56.70
67738;BME280;54534;43.612;1.572;2023-06-14T01:55:41;98583.91;;;23.58;56.49
67738;BME280;54534;43.612;1.572;2023-06-14T01:58:10;98581.06;;;23.59;56.51
67738;BME280;54534;43.612;1.572;2023-06-14T02:00:35;98578.41;;;23.59;56.57
67738;BME280;54534;43.612;1.572;2023-06-14T02:03:01;98570.34;;;23.59;56.51
67738;BME280;54534;43.612;1.572;2023-06-14T02:05:29;98581.06;;;23.59;56.57
67738;BME280;54534;43.612;1.572;2023-06-14T02:07:55;98577.53;;;23.59;56.51
67738;BME280;54534;43.612;1.572;2023-06-14T02:10:20;98581.06;;;23.59;56.46
67738;BME280;54534;43.612;1.572;2023-06-14T02:12:46;98581.41;;;23.56;56.45
67738;BME280;54534;43.612;1.572;2023-06-14T02:15:11;98591.13;;;23.57;56.51
67738;BME280;54534;43.612;1.572;2023-06-14T02:17:43;98583.91;;;23.58;56.55
67738;BME280;54534;43.612;1.572;2023-06-14T02:20:08;98582.25;;;23.57;56.47
67738;BME280;54534;43.612;1.572;2023-06-14T02:22:34;98575.19;;;23.55;56.44
67738;BME280;54534;43.612;1.572;2023-06-14T02:25:00;98564.47;;;23.55;56.56
67738;BME280;54534;43.612;1.572;2023-06-14T02:27:25;98570.69;;;23.56;56.51
67738;BME280;54534;43.612;1.572;2023-06-14T02:29:51;98576.19;;;23.54;56.55
67738;BME280;54534;43.612;1.572;2023-06-14T02:32:16;98572.53;;;23.55;56.45
67738;BME280;54534;43.612;1.572;2023-06-14T02:34:41;98580.56;;;23.55;56.30
67738;BME280;54534;43.612;1.572;2023-06-14T02:37:07;98572.69;;;23.54;56.55
67738;BME280;54534;43.612;1.572;2023-06-14T02:39:33;98573.53;;;23.54;56.39
67738;BME280;54534;43.612;1.572;2023-06-14T02:41:58;98555.75;;;23.53;56.39
67738;BME280;54534;43.612;1.572;2023-06-14T02:44:24;98569.19;;;23.53;56.43
67738;BME280;54534;43.612;1.572;2023-06-14T02:46:52;98567.34;;;23.54;56.41
67738;BME280;54534;43.612;1.572;2023-06-14T02:49:17;98569.34;;;23.52;56.29
67738;BME280;54534;43.612;1.572;2023-06-14T02:51:42;98570.19;;;23.52;56.34
67738;BME280;54534;43.612;1.572;2023-06-14T02:54:08;98570.19;;;23.52;56.47
67738;BME280;54534;43.612;1.572;2023-06-14T02:56:33;98579.06;;;23.53;56.12
67738;BME280;54534;43.612;1.572;2023-06-14T02:58:59;98581.75;;;23.53;56.30
67738;BME280;54534;43.612;1.572;2023-06-14T03:01:26;98580.91;;;23.52;56.27
67738;BME280;54534;43.612;1.572;2023-06-14T03:04:03;98579.25;;;23.51;56.21
67738;BME280;54534;43.612;1.572;2023-06-14T03:06:29;98584.63;;;23.51;56.17
67738;BME280;54534;43.612;1.572;2023-06-14T03:08:58;98587.47;;;23.50;56.16
67738;BME280;54534;43.612;1.572;2023-06-14T03:11:29;98583.78;;;23.51;56.34
67738;BME280;54534;43.612;1.572;2023-06-14T03:13:55;98589.97;;;23.51;56.31
67738;BME280;54534;43.612;1.572;2023-06-14T03:16:21;98594.50;;;23.51;56.22
67738;BME280;54534;43.612;1.572;2023-06-14T03:18:51;98591.13;;;23.49;56.49
67738;BME280;54534;43.612;1.572;2023-06-14T03:21:16;98593.66;;;23.50;56.33
67738;BME280;54534;43.612;1.572;2023-06-14T03:23:43;98600.88;;;23.50;56.28
67738;BME280;54534;43.612;1.572;2023-06-14T03:26:08;98597.19;;;23.51;56.21
67738;BME280;54534;43.612;1.572;2023-06-14T03:28:33;98599.88;;;23.51;56.15
67738;BME280;54534;43.612;1.572;2023-06-14T03:31:00;98594.50;;;23.51;56.18
67738;BME280;54534;43.612;1.572;2023-06-14T03:33:26;98603.56;;;23.50;56.26
67738;BME280;54534;43.612;1.572;2023-06-14T03:35:52;98599.03;;;23.50;56.25
67738;BME280;54534;43.612;1.572;2023-06-14T03:38:17;98606.22;;;23.50;56.26
67738;BME280;54534;43.612;1.572;2023-06-14T03:40:42;98604.56;;;23.49;56.28
67738;BME280;54534;43.612;1.572;2023-06-14T03:43:09;98610.72;;;23.49;56.28
67738;BME280;54534;43.612;1.572;2023-06-14T03:45:35;98609.22;;;23.47;56.31
67738;BME280;54534;43.612;1.572;2023-06-14T03:48:00;98617.97;;;23.49;56.20
67738;BME280;54534;43.612;1.572;2023-06-14T03:50:26;98622.50;;;23.48;56.36
67738;BME280;54534;43.612;1.572;2023-06-14T03:52:52;98627.34;;;23.44;56.34
67738;BME280;54534;43.612;1.572;2023-06-14T03:55:18;98629.69;;;23.48;56.28
67738;BME280;54534;43.612;1.572;2023-06-14T03:57:43;98625.31;;;23.47;56.18
67738;BME280;54534;43.612;1.572;2023-06-14T04:00:10;98617.63;;;23.43;55.78
67738;BME280;54534;43.612;1.572;2023-06-14T04:02:36;98629.69;;;23.48;56.20
67738;BME280;54534;43.612;1.572;2023-06-14T04:05:02;98642.09;;;23.49;56.15
67738;BME280;54534;43.612;1.572;2023-06-14T04:07:28;98634.22;;;23.47;56.11
67738;BME280;54534;43.612;1.572;2023-06-14T04:09:54;98640.41;;;23.48;56.18
67738;BME280;54534;43.612;1.572;2023-06-14T04:12:19;98637.75;;;23.48;56.13
67738;BME280;54534;43.612;1.572;2023-06-14T04:14:45;98636.91;;;23.47;55.96
67738;BME280;54534;43.612;1.572;2023-06-14T04:17:11;98636.06;;;23.47;56.03
67738;BME280;54534;43.612;1.572;2023-06-14T04:19:36;98635.25;;;23.46;56.09
67738;BME280;54534;43.612;1.572;2023-06-14T04:22:02;98642.25;;;23.47;55.93
67738;BME280;54534;43.612;1.572;2023-06-14T04:24:28;98636.06;;;23.47;56.11
67738;BME280;54534;43.612;1.572;2023-06-14T04:27:01;98641.41;;;23.47;56.10
67738;BME280;54534;43.612;1.572;2023-06-14T04:29:26;98639.75;;;23.46;56.15
67738;BME280;54534;43.612;1.572;2023-06-14T04:31:55;98644.28;;;23.45;56.17
67738;BME280;54534;43.612;1.572;2023-06-14T04:34:27;98640.75;;;23.44;56.19
67738;BME280;54534;43.612;1.572;2023-06-14T04:36:58;98638.06;;;23.44;56.17
67738;BME280;54534;43.612;1.572;2023-06-14T04:39:25;98645.13;;;23.46;56.03
67738;BME280;54534;43.612;1.572;2023-06-14T04:41:51;98643.44;;;23.44;56.12
67738;BME280;54534;43.612;1.572;2023-06-14T04:44:20;98650.50;;;23.46;56.04
67738;BME280;54534;43.612;1.572;2023-06-14T04:46:46;98647.16;;;23.43;56.35
67738;BME280;54534;43.612;1.572;2023-06-14T04:49:15;98648.81;;;23.44;56.04
67738;BME280;54534;43.612;1.572;2023-06-14T04:51:45;98648.81;;;23.44;56.08
67738;BME280;54534;43.612;1.572;2023-06-14T04:54:11;98654.16;;;23.44;55.88
67738;BME280;54534;43.612;1.572;2023-06-14T04:56:41;98653.31;;;23.44;56.02
67738;BME280;54534;43.612;1.572;2023-06-14T04:59:07;98646.31;;;23.43;55.95
67738;BME280;54534;43.612;1.572;2023-06-14T05:01:34;98653.31;;;23.44;55.96
67738;BME280;54534;43.612;1.572;2023-06-14T05:03:59;98655.19;;;23.43;56.16
67738;BME280;54534;43.612;1.572;2023-06-14T05:06:25;98657.88;;;23.43;56.02
67738;BME280;54534;43.612;1.572;2023-06-14T05:08:54;98661.38;;;23.44;55.97
67738;BME280;54534;43.612;1.572;2023-06-14T05:11:20;98663.25;;;23.43;55.91
67738;BME280;54534;43.612;1.572;2023-06-14T05:13:49;98670.28;;;23.44;55.91
67738;BME280;54534;43.612;1.572;2023-06-14T05:16:15;98668.63;;;23.43;55.89
67738;BME280;54534;43.612;1.572;2023-06-14T05:18:42;98685.53;;;23.44;55.81
67738;BME280;54534;43.612;1.572;2023-06-14T05:21:07;98686.53;;;23.43;55.89
67738;BME280;54534;43.612;1.572;2023-06-14T05:23:34;98687.38;;;23.43;55.97
67738;BME280;54534;43.612;1.572;2023-06-14T05:25:59;98683.69;;;23.36;55.94
67738;BME280;54534;43.612;1.572;2023-06-14T05:28:25;98685.03;;;23.40;55.78
67738;BME280;54534;43.612;1.572;2023-06-14T05:30:51;98692.06;;;23.41;55.74
67738;BME280;54534;43.612;1.572;2023-06-14T05:33:17;98692.75;;;23.43;55.88
67738;BME280;54534;43.612;1.572;2023-06-14T05:35:42;98696.44;;;23.42;55.92
67738;BME280;54534;43.612;1.572;2023-06-14T05:38:07;98696.44;;;23.42;55.95
67738;BME280;54534;43.612;1.572;2023-06-14T05:40:33;98701.63;;;23.44;55.99
67738;BME280;54534;43.612;1.572;2023-06-14T05:42:59;98698.13;;;23.43;55.99
67738;BME280;54534;43.612;1.572;2023-06-14T05:45:24;98708.00;;;23.43;55.93
67738;BME280;54534;43.612;1.572;2023-06-14T05:47:50;98706.16;;;23.43;55.98
67738;BME280;54534;43.612;1.572;2023-06-14T05:50:15;98713.19;;;23.44;55.90
67738;BME280;54534;43.612;1.572;2023-06-14T05:52:41;98723.06;;;23.44;55.86
67738;BME280;54534;43.612;1.572;2023-06-14T05:55:06;98719.59;;;23.43;56.06
67738;BME280;54534;43.612;1.572;2023-06-14T05:57:32;98715.03;;;23.44;55.92
67738;BME280;54534;43.612;1.572;2023-06-14T05:59:57;98721.41;;;23.43;56.00
67738;BME280;54534;43.612;1.572;2023-06-14T06:02:22;98714.22;;;23.43;56.03
67738;BME280;54534;43.612;1.572;2023-06-14T06:04:49;98710.03;;;23.41;55.90
67738;BME280;54534;43.612;1.572;2023-06-14T06:07:15;98719.59;;;23.43;55.98
67738;BME280;54534;43.612;1.572;2023-06-14T06:09:40;98717.91;;;23.42;55.95
67738;BME280;54534;43.612;1.572;2023-06-14T06:12:06;98723.06;;;23.44;55.99
67738;BME280;54534;43.612;1.572;2023-06-14T06:14:32;98730.13;;;23.45;55.98
67738;BME280;54534;43.612;1.572;2023-06-14T06:16:58;98730.31;;;23.43;55.79
67738;BME280;54534;43.612;1.572;2023-06-14T06:19:23;98738.38;;;23.43;56.00
67738;BME280;54534;43.612;1.572;2023-06-14T06:21:49;98743.72;;;23.43;55.96
67738;BME280;54534;43.612;1.572;2023-06-14T06:24:14;98745.56;;;23.43;56.05
67738;BME280;54534;43.612;1.572;2023-06-14T06:26:40;98740.03;;;23.44;55.91
67738;BME280;54534;43.612;1.572;2023-06-14T06:29:05;98742.88;;;23.43;55.93
67738;BME280;54534;43.612;1.572;2023-06-14T06:31:31;98739.34;;;23.42;56.00
67738;BME280;54534;43.612;1.572;2023-06-14T06:33:56;98738.38;;;23.43;55.99
67738;BME280;54534;43.612;1.572;2023-06-14T06:36:22;98745.56;;;23.43;55.96
67738;BME280;54534;43.612;1.572;2023-06-14T06:38:48;98754.47;;;23.43;55.91
67738;BME280;54534;43.612;1.572;2023-06-14T06:41:13;98756.44;;;23.41;55.95
67738;BME280;54534;43.612;1.572;2023-06-14T06:43:39;98769.72;;;23.43;56.20
67738;BME280;54534;43.612;1.572;2023-06-14T06:46:04;98765.53;;;23.40;56.02
67738;BME280;54534;43.612;1.572;2023-06-14T06:48:30;98767.03;;;23.43;56.05
67738;BME280;54534;43.612;1.572;2023-06-14T06:50:55;98777.75;;;23.43;55.96
67738;BME280;54534;43.612;1.572;2023-06-14T06:53:21;98784.97;;;23.42;56.14
67738;BME280;54534;43.612;1.572;2023-06-14T06:55:47;98782.47;;;23.41;56.05
67738;BME280;54534;43.612;1.572;2023-06-14T06:58:13;98788.50;;;23.43;56.04
67738;BME280;54534;43.612;1.572;2023-06-14T07:00:39;98791.19;;;23.43;56.04
67738;BME280;54534;43.612;1.572;2023-06-14T07:03:05;98790.34;;;23.42;56.19
67738;BME280;54534;43.612;1.572;2023-06-14T07:05:30;98789.34;;;23.43;56.28
67738;BME280;54534;43.612;1.572;2023-06-14T07:07:56;98795.69;;;23.42;56.08
67738;BME280;54534;43.612;1.572;2023-06-14T07:10:21;98794.84;;;23.42;56.00
67738;BME280;54534;43.612;1.572;2023-06-14T07:12:47;98795.69;;;23.42;56.16
67738;BME280;54534;43.612;1.572;2023-06-14T07:15:12;98802.91;;;23.42;56.10
67738;BME280;54534;43.612;1.572;2023-06-14T07:17:38;98795.03;;;23.40;56.25
67738;BME280;54534;43.612;1.572;2023-06-14T07:20:04;98792.34;;;23.40;56.07
67738;BME280;54534;43.612;1.572;2023-06-14T07:22:33;98796.69;;;23.41;56.09
67738;BME280;54534;43.612;1.572;2023-06-14T07:24:58;98803.91;;;23.41;56.33
67738;BME280;54534;43.612;1.572;2023-06-14T07:27:24;98797.72;;;23.40;56.26
67738;BME280;54534;43.612;1.572;2023-06-14T07:29:49;98802.06;;;23.41;56.18
67738;BME280;54534;43.612;1.572;2023-06-14T07:32:14;98798.56;;;23.41;56.22
67738;BME280;54534;43.612;1.572;2023-06-14T07:34:40;98804.72;;;23.41;56.18
67738;BME280;54534;43.612;1.572;2023-06-14T07:37:05;98804.72;;;23.41;56.06
67738;BME280;54534;43.612;1.572;2023-06-14T07:39:31;98815.47;;;23.41;56.12
67738;BME280;54534;43.612;1.572;2023-06-14T07:41:56;98816.31;;;23.42;56.11
67738;BME280;54534;43.612;1.572;2023-06-14T07:44:21;98820.84;;;23.41;56.09
67738;BME280;54534;43.612;1.572;2023-06-14T07:46:47;98824.53;;;23.40;56.28
67738;BME280;54534;43.612;1.572;2023-06-14T07:49:14;98831.56;;;23.41;56.13
67738;BME280;54534;43.612;1.572;2023-06-14T07:51:40;98824.53;;;23.40;56.14
67738;BME280;54534;43.612;1.572;2023-06-14T07:54:05;98830.91;;;23.39;56.13
67738;BME280;54534;43.612;1.572;2023-06-14T07:56:32;98836.94;;;23.41;56.04
67738;BME280;54534;43.612;1.572;2023-06-14T07:58:58;98832.59;;;23.40;56.23
67738;BME280;54534;43.612;1.572;2023-06-14T08:01:23;98828.22;;;23.39;56.12
67738;BME280;54534;43.612;1.572;2023-06-14T08:03:50;98835.28;;;23.40;56.08
67738;BME280;54534;43.612;1.572;2023-06-14T08:06:16;98840.63;;;23.40;56.08
67738;BME280;54534;43.612;1.572;2023-06-14T08:08:41;98838.94;;;23.39;56.06
67738;BME280;54534;43.612;1.572;2023-06-14T08:11:06;98842.47;;;23.40;56.17
67738;BME280;54534;43.612;1.572;2023-06-14T08:13:32;98842.66;;;23.38;56.07
67738;BME280;54534;43.612;1.572;2023-06-14T08:15:57;98842.47;;;23.40;55.93
67738;BME280;54534;43.612;1.572;2023-06-14T08:18:23;98852.34;;;23.39;56.03
67738;BME280;54534;43.612;1.572;2023-06-14T08:20:49;98849.69;;;23.39;56.09
67738;BME280;54534;43.612;1.572;2023-06-14T08:23:15;98847.84;;;23.40;56.02
67738;BME280;54534;43.612;1.572;2023-06-14T08:25:44;98847.84;;;23.40;55.91
67738;BME280;54534;43.612;1.572;2023-06-14T08:28:10;98849.69;;;23.39;56.28
67738;BME280;54534;43.612;1.572;2023-06-14T08:30:35;98856.06;;;23.38;56.00
67738;BME280;54534;43.612;1.572;2023-06-14T08:33:01;98859.41;;;23.40;56.09
67738;BME280;54534;43.612;1.572;2023-06-14T08:35:26;98857.72;;;23.39;55.87
67738;BME280;54534;43.612;1.572;2023-06-14T08:37:52;98853.38;;;23.38;56.02
67738;BME280;54534;43.612;1.572;2023-06-14T08:40:20;98860.41;;;23.39;55.94
67738;BME280;54534;43.612;1.572;2023-06-14T08:42:49;98861.25;;;23.40;56.02
67738;BME280;54534;43.612;1.572;2023-06-14T08:45:15;98863.94;;;23.40;55.93
67738;BME280;54534;43.612;1.572;2023-06-14T08:47:41;98866.63;;;23.40;56.05
67738;BME280;54534;43.612;1.572;2023-06-14T08:50:07;98862.09;;;23.40;56.06
67738;BME280;54534;43.612;1.572;2023-06-14T08:52:37;98860.41;;;23.39;55.91
67738;BME280;54534;43.612;1.572;2023-06-14T08:55:06;98863.41;;;23.36;55.83
67738;BME280;54534;43.612;1.572;2023-06-14T08:57:35;98862.25;;;23.39;55.96
67738;BME280;54534;43.612;1.572;2023-06-14T09:00:03;98868.63;;;23.38;55.92
67738;BME280;54534;43.612;1.572;2023-06-14T09:02:37;98876.69;;;23.38;55.88
67738;BME280;54534;43.612;1.572;2023-06-14T09:05:02;98874.84;;;23.38;55.95
67738;BME280;54534;43.612;1.572;2023-06-14T09:07:28;98877.66;;;23.37;55.87
67738;BME280;54534;43.612;1.572;2023-06-14T09:10:12;98879.38;;;23.38;55.90
67738;BME280;54534;43.612;1.572;2023-06-14T09:12:38;98877.00;;;23.35;55.85
67738;BME280;54534;43.612;1.572;2023-06-14T09:15:05;98879.38;;;23.38;55.87
67738;BME280;54534;43.612;1.572;2023-06-14T09:17:40;98875.16;;;23.35;56.02
67738;BME280;54534;43.612;1.572;2023-06-14T09:20:07;98876.81;;;23.36;55.87
67738;BME280;54534;43.612;1.572;2023-06-14T09:22:39;98879.38;;;23.38;55.93
67738;BME280;54534;43.612;1.572;2023-06-14T09:25:05;98880.22;;;23.38;55.93
67738;BME280;54534;43.612;1.572;2023-06-14T09:27:32;98879.38;;;23.38;55.88
67738;BME280;54534;43.612;1.572;2023-06-14T09:29:58;98888.41;;;23.37;55.94
67738;BME280;54534;43.612;1.572;2023-06-14T09:32:23;98880.22;;;23.38;55.78
67738;BME280;54534;43.612;1.572;2023-06-14T09:34:50;98876.81;;;23.36;55.95
67738;BME280;54534;43.612;1.572;2023-06-14T09:37:28;98890.94;;;23.38;55.79
67738;BME280;54534;43.612;1.572;2023-06-14T09:39:54;98872.31;;;23.37;55.81
67738;BME280;54534;43.612;1.572;2023-06-14T09:42:20;98881.03;;;23.39;55.64
67738;BME280;54534;43.612;1.572;2023-06-14T09:44:48;98890.94;;;23.38;55.78
67738;BME280;54534;43.612;1.572;2023-06-14T09:47:15;98888.25;;;23.38;55.81
67738;BME280;54534;43.612;1.572;2023-06-14T09:49:41;98891.75;;;23.39;55.72
67738;BME280;54534;43.612;1.572;2023-06-14T09:52:10;98894.44;;;23.39;55.80
67738;BME280;54534;43.612;1.572;2023-06-14T09:54:39;98902.47;;;23.39;55.91
67738;BME280;54534;43.612;1.572;2023-06-14T09:57:07;98914.06;;;23.39;55.79
67738;BME280;54534;43.612;1.572;2023-06-14T09:59:34;98905.03;;;23.40;55.81
67738;BME280;54534;43.612;1.572;2023-06-14T10:02:07;98896.63;;;23.35;55.90
67738;BME280;54534;43.612;1.572;2023-06-14T10:04:34;98900.66;;;23.39;55.94
67738;BME280;54534;43.612;1.572;2023-06-14T10:07:00;98897.81;;;23.41;55.78
67738;BME280;54534;43.612;1.572;2023-06-14T10:09:28;98893.28;;;23.41;55.83
67738;BME280;54534;43.612;1.572;2023-06-14T10:11:55;98901.31;;;23.41;55.79
67738;BME280;54534;43.612;1.572;2023-06-14T10:14:21;98895.13;;;23.41;55.69
67738;BME280;54534;43.612;1.572;2023-06-14T10:19:33;98904.84;;;23.42;55.71
67738;BME280;54534;43.612;1.572;2023-06-14T10:22:08;98894.97;;;23.42;55.91
67738;BME280;54534;43.612;1.572;2023-06-14T10:24:41;98898.50;;;23.43;55.70
67738;BME280;54534;43.612;1.572;2023-06-14T10:27:08;98893.97;;;23.43;55.88
67738;BME280;54534;43.612;1.572;2023-06-14T10:32:21;98897.47;;;23.44;55.88
67738;BME280;54534;43.612;1.572;2023-06-14T10:35:04;98895.94;;;23.41;55.72
67738;BME280;54534;43.612;1.572;2023-06-14T10:37:30;98893.13;;;23.43;55.63
67738;BME280;54534;43.612;1.572;2023-06-14T10:39:56;98875.16;;;23.35;55.61
67738;BME280;54534;43.612;1.572;2023-06-14T10:42:22;98887.59;;;23.44;55.74
67738;BME280;54534;43.612;1.572;2023-06-14T10:44:57;98886.59;;;23.46;55.67
67738;BME280;54534;43.612;1.572;2023-06-14T10:47:30;98885.06;;;23.43;55.65
67738;BME280;54534;43.612;1.572;2023-06-14T10:52:37;98889.41;;;23.44;55.63
67738;BME280;54534;43.612;1.572;2023-06-14T10:57:35;98894.47;;;23.47;55.81
67738;BME280;54534;43.612;1.572;2023-06-14T11:00:03;98886.59;;;23.46;55.69
67738;BME280;54534;43.612;1.572;2023-06-14T11:10:47;98896.16;;;23.48;55.73
67738;BME280;54534;43.612;1.572;2023-06-14T11:13:12;98886.75;;;23.44;55.88
67738;BME280;54534;43.612;1.572;2023-06-14T11:15:38;98895.47;;;23.46;55.74
67738;BME280;54534;43.612;1.572;2023-06-14T11:18:08;98892.44;;;23.49;55.82
67738;BME280;54534;43.612;1.572;2023-06-14T11:20:37;98893.19;;;23.51;55.77
67738;BME280;54534;43.612;1.572;2023-06-14T11:23:03;98884.28;;;23.51;55.70
67738;BME280;54534;43.612;1.572;2023-06-14T11:25:29;98894.00;;;23.52;55.65
67738;BME280;54534;43.612;1.572;2023-06-14T11:27:55;98895.69;;;23.53;55.70
67738;BME280;54534;43.612;1.572;2023-06-14T11:30:21;98894.16;;;23.50;55.72
67738;BME280;54534;43.612;1.572;2023-06-14T11:32:51;98890.50;;;23.51;55.76
67738;BME280;54534;43.612;1.572;2023-06-14T11:35:17;98890.50;;;23.51;55.68
67738;BME280;54534;43.612;1.572;2023-06-14T11:37:43;98890.66;;;23.50;55.83
67738;BME280;54534;43.612;1.572;2023-06-14T11:40:10;98883.06;;;23.45;55.75
67738;BME280;54534;43.612;1.572;2023-06-14T11:42:37;98895.88;;;23.51;55.78
67738;BME280;54534;43.612;1.572;2023-06-14T11:45:04;98886.78;;;23.52;55.69
67738;BME280;54534;43.612;1.572;2023-06-14T11:47:33;98888.63;;;23.52;55.73
67738;BME280;54534;43.612;1.572;2023-06-14T11:50:02;98898.38;;;23.53;55.62
67738;BME280;54534;43.612;1.572;2023-06-14T11:52:28;98892.16;;;23.52;55.68
67738;BME280;54534;43.612;1.572;2023-06-14T11:54:56;98885.28;;;23.50;55.77
67738;BME280;54534;43.612;1.572;2023-06-14T11:57:22;98881.72;;;23.49;55.72
67738;BME280;54534;43.612;1.572;2023-06-14T11:59:48;98887.63;;;23.53;55.50
67738;BME280;54534;43.612;1.572;2023-06-14T12:02:18;98883.13;;;23.53;55.69
67738;BME280;54534;43.612;1.572;2023-06-14T12:04:46;98879.59;;;23.53;55.67
67738;BME280;54534;43.612;1.572;2023-06-14T12:07:13;98871.53;;;23.53;55.64
67738;BME280;54534;43.612;1.572;2023-06-14T12:12:36;98874.22;;;23.53;55.76
67738;BME280;54534;43.612;1.572;2023-06-14T12:15:06;98871.53;;;23.53;55.61
67738;BME280;54534;43.612;1.572;2023-06-14T12:17:33;98869.53;;;23.55;55.56
67738;BME280;54534;43.612;1.572;2023-06-14T12:19:59;98881.94;;;23.56;55.68
67738;BME280;54534;43.612;1.572;2023-06-14T12:22:31;98885.63;;;23.55;55.82
67738;BME280;54534;43.612;1.572;2023-06-14T12:24:57;98886.28;;;23.57;55.53
67738;BME280;54534;43.612;1.572;2023-06-14T12:27:22;98890.84;;;23.57;55.58
67738;BME280;54534;43.612;1.572;2023-06-14T12:29:58;98890.66;;;23.58;55.80
67738;BME280;54534;43.612;1.572;2023-06-14T12:32:24;98877.25;;;23.58;55.75
67738;BME280;54534;43.612;1.572;2023-06-14T12:34:50;98885.31;;;23.58;55.62
67738;BME280;54534;43.612;1.572;2023-06-14T12:37:15;98877.25;;;23.58;55.62
67738;BME280;54534;43.612;1.572;2023-06-14T12:39:41;98870.03;;;23.59;55.72
67738;BME280;54534;43.612;1.572;2023-06-14T12:42:06;98882.44;;;23.60;55.76
67738;BME280;54534;43.612;1.572;2023-06-14T12:44:32;98883.28;;;23.60;55.68
67738;BME280;54534;43.612;1.572;2023-06-14T12:47:00;98874.25;;;23.61;55.74
67738;BME280;54534;43.612;1.572;2023-06-14T12:49:26;98866.34;;;23.60;55.73
67738;BME280;54534;43.612;1.572;2023-06-14T12:51:51;98875.09;;;23.62;55.78
67738;BME280;54534;43.612;1.572;2023-06-14T12:54:16;98875.91;;;23.62;55.74
67738;BME280;54534;43.612;1.572;2023-06-14T12:56:42;98868.88;;;23.61;55.68
67738;BME280;54534;43.612;1.572;2023-06-14T12:59:10;98882.97;;;23.63;55.66
67738;BME280;54534;43.612;1.572;2023-06-14T13:01:37;98873.06;;;23.64;55.79
67738;BME280;54534;43.612;1.572;2023-06-14T13:04:04;98872.91;;;23.65;55.61
67738;BME280;54534;43.612;1.572;2023-06-14T13:06:29;98860.50;;;23.64;55.63
67738;BME280;54534;43.612;1.572;2023-06-14T13:08:56;98875.56;;;23.65;55.54
67738;BME280;54534;43.612;1.572;2023-06-14T13:11:22;98876.44;;;23.66;55.67
67738;BME280;54534;43.612;1.572;2023-06-14T13:13:48;98883.47;;;23.67;55.75
67738;BME280;54534;43.612;1.572;2023-06-14T13:16:13;98879.94;;;23.66;55.61
67738;BME280;54534;43.612;1.572;2023-06-14T13:18:39;98879.94;;;23.66;55.68
67738;BME280;54534;43.612;1.572;2023-06-14T13:21:05;98876.25;;;23.67;55.61